Time;durP1;ratioP1;P1;durP2;ratioP2;P2;SDS_P1;SDS_P2;PMS_P1;PMS_P2;Temp;Humidity;BMP_temperature;BMP_pressure;BME280_temperature;BME280_humidity;BME280_pressure;Samples;Min_cycle;Max_cycle;Signal;HPM_P1;HPM_P2
2023/05/24 00:00:46;;;;;;;7.33;6.73;;;;;;;17.58;85.28;99204.69;5075084;28;20619;-63
2023/05/24 00:03:14;;;;;;;7.87;7.03;;;;;;;17.40;84.66;99204.97;5074283;28;20232;-62
2023/05/24 00:05:40;;;;;;;7.17;6.57;;;;;;;17.45;86.19;99203.19;5074780;28;20200;-62
2023/05/24 00:08:07;;;;;;;7.50;7.00;;;;;;;17.47;85.25;99203.75;5075220;28;20192;-63
2023/05/24 00:10:34;;;;;;;7.80;7.13;;;;;;;17.43;84.63;99204.50;5074715;28;20664;-62
2023/05/24 00:13:01;;;;;;;7.40;6.90;;;;;;;17.31;85.28;99190.34;5075042;28;20207;-62
2023/05/24 00:15:27;;;;;;;7.50;6.80;;;;;;;17.25;86.22;99191.31;5074417;28;20192;-62
2023/05/24 00:17:55;;;;;;;7.93;7.30;;;;;;;17.14;85.45;99189.50;5075083;28;20199;-62
2023/05/24 00:20:22;;;;;;;7.73;7.07;;;;;;;17.08;86.54;99195.88;5074448;28;20682;-62
2023/05/24 00:22:49;;;;;;;7.87;7.23;;;;;;;17.06;86.92;99198.81;5075089;28;20654;-62
2023/05/24 00:25:16;;;;;;;10.03;7.40;;;;;;;17.10;86.81;99196.44;5074443;28;20667;-61
2023/05/24 00:27:42;;;;;;;6.90;6.27;;;;;;;17.11;87.03;99188.13;5073952;28;20194;-62
2023/05/24 00:30:09;;;;;;;6.93;6.43;;;;;;;17.27;86.67;99197.25;5074356;28;20261;-62
2023/05/24 00:32:36;;;;;;;7.90;7.20;;;;;;;17.35;86.26;99196.84;5074873;28;20315;-62
2023/05/24 00:35:05;;;;;;;7.60;7.10;;;;;;;17.46;85.40;99196.75;5074199;28;20193;-63
2023/05/24 00:37:32;;;;;;;7.70;7.07;;;;;;;17.56;84.91;99199.56;5074974;28;20579;-62
2023/05/24 00:39:58;;;;;;;7.90;7.10;;;;;;;17.61;85.26;99201.53;5073023;28;20269;-63
2023/05/24 00:42:25;;;;;;;7.47;6.87;;;;;;;17.67;84.86;99192.47;5074443;28;20666;-62
2023/05/24 00:44:52;;;;;;;8.17;7.37;;;;;;;17.67;84.10;99201.34;5073089;28;20197;-62
2023/05/24 00:47:19;;;;;;;7.70;7.00;;;;;;;17.60;84.30;99194.53;5074126;28;20192;-62
2023/05/24 00:49:46;;;;;;;8.10;7.33;;;;;;;17.47;84.64;99192.22;5074197;28;20580;-62
2023/05/24 00:52:14;;;;;;;7.00;6.50;;;;;;;17.35;86.17;99181.53;5073617;28;20677;-62
2023/05/24 00:54:41;;;;;;;7.53;6.87;;;;;;;17.23;85.84;99177.34;5073808;28;20193;-62
2023/05/24 00:57:08;;;;;;;7.50;6.80;;;;;;;17.05;86.51;99169.53;5073934;28;20196;-62
2023/05/24 00:59:35;;;;;;;8.03;7.23;;;;;;;16.89;87.12;99170.34;5074322;28;20223;-62
2023/05/24 01:02:02;;;;;;;7.83;7.20;;;;;;;16.89;88.18;99170.34;5074200;28;20200;-62
2023/05/24 01:04:31;;;;;;;8.03;7.30;;;;;;;16.82;88.89;99173.19;5072915;28;20240;-61
2023/05/24 01:07:09;;;;;;;10.83;7.57;;;;;;;16.81;88.09;99170.75;5074102;28;20568;-62
2023/05/24 01:09:51;;;;;;;8.93;7.37;;;;;;;16.74;89.20;99167.44;5073750;28;20650;-61
2023/05/24 01:12:25;;;;;;;7.67;7.00;;;;;;;16.69;89.39;99159.28;5073681;28;20188;-61
2023/05/24 01:15:05;;;;;;;11.57;7.50;;;;;;;16.79;89.95;99159.47;5074006;28;20184;-61
2023/05/24 01:17:41;;;;;;;9.20;7.40;;;;;;;16.81;88.12;99158.16;5074162;28;20191;-61
2023/05/24 01:20:12;;;;;;;7.40;6.80;;;;;;;16.86;88.80;99165.50;5073809;28;20351;-61
2023/05/24 01:23:00;;;;;;;7.47;6.83;;;;;;;16.87;87.44;99167.09;5072972;28;20244;-61
2023/05/24 01:25:50;;;;;;;8.77;6.60;;;;;;;16.67;88.56;99161.41;5073591;28;20271;-62
2023/05/24 01:28:18;;;;;;;11.03;7.40;;;;;;;16.56;89.28;99154.22;5071995;28;20226;-61
2023/05/24 01:30:45;;;;;;;7.80;7.10;;;;;;;16.51;88.73;99156.84;5072474;28;20279;-62
2023/05/24 01:33:12;;;;;;;8.23;6.97;;;;;;;16.42;88.67;99148.41;5073551;28;20275;-61
2023/05/24 01:35:41;;;;;;;7.87;7.17;;;;;;;16.37;88.57;99150.13;5073365;28;20729;-62
2023/05/24 01:38:08;;;;;;;7.20;6.50;;;;;;;16.31;88.40;99161.81;5073493;28;20227;-61
2023/05/24 01:40:36;;;;;;;7.97;7.40;;;;;;;16.21;88.92;99151.72;5072845;28;20231;-61
2023/05/24 01:43:11;;;;;;;9.20;6.87;;;;;;;16.20;89.59;99154.66;5073154;28;20199;-62
2023/05/24 01:45:48;;;;;;;8.77;7.90;;;;;;;16.22;89.27;99155.22;5073009;28;20245;-61
2023/05/24 01:48:23;;;;;;;7.97;7.23;;;;;;;16.30;90.53;99152.16;5073111;28;20674;-61
2023/05/24 01:50:55;;;;;;;7.87;7.27;;;;;;;16.26;88.25;99159.03;5073233;28;20196;-61
2023/05/24 01:53:25;;;;;;;7.43;6.83;;;;;;;16.23;88.93;99154.16;5072664;28;20242;-61
2023/05/24 01:55:55;;;;;;;7.53;6.80;;;;;;;16.19;87.32;99159.19;5072875;28;20200;-61
2023/05/24 01:58:23;;;;;;;7.83;6.87;;;;;;;16.12;88.10;99158.50;5072690;28;20693;-61
2023/05/24 02:00:52;;;;;;;6.80;6.43;;;;;;;16.02;88.05;99163.69;5072332;28;20211;-63
2023/05/24 02:03:19;;;;;;;7.83;7.17;;;;;;;15.97;88.88;99170.81;5072938;28;20192;-61
2023/05/24 02:05:46;;;;;;;7.23;6.60;;;;;;;16.01;89.40;99171.97;5054898;28;20258;-62
2023/05/24 02:08:13;;;;;;;7.03;6.30;;;;;;;16.14;89.19;99167.13;5052869;28;20192;-61
2023/05/24 02:10:40;;;;;;;7.57;6.80;;;;;;;16.25;87.77;99173.50;5058509;28;20281;-61
2023/05/24 02:13:08;;;;;;;7.03;6.40;;;;;;;16.39;87.30;99180.19;5072991;28;20196;-62
2023/05/24 02:15:35;;;;;;;7.03;6.43;;;;;;;16.52;86.11;99179.91;5072699;28;20196;-61
2023/05/24 02:18:06;;;;;;;6.73;6.23;;;;;;;16.56;85.64;99187.25;5072623;28;20269;-61
2023/05/24 02:20:35;;;;;;;10.67;6.63;;;;;;;16.56;85.08;99197.13;5072488;28;20214;-62
2023/05/24 02:23:02;;;;;;;7.23;6.33;;;;;;;16.51;85.07;99199.75;5071960;28;20207;-61
2023/05/24 02:25:30;;;;;;;6.23;5.60;;;;;;;16.57;85.57;99196.09;5072541;28;20249;-61
2023/05/24 02:27:57;;;;;;;6.10;5.70;;;;;;;16.76;86.16;99203.69;5072500;28;20195;-62
2023/05/24 02:30:23;;;;;;;7.13;5.80;;;;;;;16.90;85.92;99204.19;5072097;28;20635;-61
2023/05/24 02:32:50;;;;;;;7.37;6.10;;;;;;;16.99;83.38;99213.44;5072213;28;20223;-61
2023/05/24 02:35:20;;;;;;;8.53;5.90;;;;;;;17.03;84.10;99212.69;5071980;28;20200;-61
2023/05/24 02:37:47;;;;;;;8.97;6.50;;;;;;;17.04;84.24;99205.47;5072193;28;20202;-62
2023/05/24 02:40:14;;;;;;;7.10;6.23;;;;;;;17.07;83.53;99202.31;5071817;28;20219;-62
2023/05/24 02:42:41;;;;;;;6.33;5.73;;;;;;;17.03;83.20;99210.03;5072150;28;20187;-61
2023/05/24 02:45:08;;;;;;;8.67;5.67;;;;;;;16.99;82.21;99218.81;5072289;28;20255;-61
2023/05/24 02:47:35;;;;;;;7.90;6.17;;;;;;;16.95;82.69;99218.47;5072149;28;20188;-61
2023/05/24 02:50:02;;;;;;;9.80;7.37;;;;;;;16.96;83.29;99220.13;5072429;28;20327;-62
2023/05/24 02:52:30;;;;;;;7.90;6.07;;;;;;;17.01;83.01;99232.78;5071205;28;20184;-62
2023/05/24 02:54:56;;;;;;;7.57;6.30;;;;;;;17.04;82.86;99232.31;5072201;28;20234;-62
2023/05/24 02:57:23;;;;;;;6.63;5.73;;;;;;;17.00;82.17;99242.72;5072071;28;20196;-60
2023/05/24 02:59:50;;;;;;;9.40;6.70;;;;;;;16.99;82.63;99232.25;5071671;28;20254;-61
2023/05/24 03:02:18;;;;;;;6.80;6.20;;;;;;;17.02;83.04;99221.03;5071963;28;20244;-60
2023/05/24 03:04:45;;;;;;;6.60;6.13;;;;;;;17.08;83.22;99226.22;5069424;28;20198;-60
2023/05/24 03:07:12;;;;;;;7.03;5.90;;;;;;;17.15;83.48;99229.53;5071626;28;20660;-60
2023/05/24 03:09:41;;;;;;;8.33;6.27;;;;;;;17.14;82.32;99235.97;5071149;28;20580;-60
2023/05/24 03:12:08;;;;;;;7.00;6.33;;;;;;;17.08;82.30;99233.44;5071588;28;20663;-60
2023/05/24 03:14:34;;;;;;;7.07;6.47;;;;;;;17.10;82.15;99225.97;5071639;28;20737;-60
2023/05/24 03:17:01;;;;;;;9.07;6.30;;;;;;;17.14;83.16;99232.47;5071553;28;20187;-60
2023/05/24 03:19:28;;;;;;;7.00;6.40;;;;;;;17.18;83.71;99225.56;5072102;28;20230;-60
2023/05/24 03:21:54;;;;;;;12.47;5.87;;;;;;;17.27;83.13;99224.91;5072024;28;20196;-60
2023/05/24 03:24:21;;;;;;;6.23;5.87;;;;;;;17.33;82.67;99231.16;5071901;28;20253;-60
2023/05/24 03:26:49;;;;;;;13.00;5.80;;;;;;;17.35;81.62;99231.75;5071778;28;20188;-60
2023/05/24 03:29:16;;;;;;;6.20;5.13;;;;;;;17.41;81.85;99238.84;5071739;28;20203;-61
2023/05/24 03:31:43;;;;;;;8.07;5.80;;;;;;;17.43;82.29;99239.41;5071244;28;20748;-60
2023/05/24 03:34:09;;;;;;;8.53;6.90;;;;;;;17.37;82.22;99232.28;5071369;28;20262;-61
2023/05/24 03:36:36;;;;;;;7.33;6.63;;;;;;;17.33;81.73;99225.78;5071749;28;20199;-60
2023/05/24 03:39:03;;;;;;;7.97;6.30;;;;;;;17.45;82.45;99234.59;5071338;28;20200;-61
2023/05/24 03:41:30;;;;;;;9.47;6.10;;;;;;;17.56;82.02;99228.31;5070769;28;20599;-60
2023/05/24 03:43:58;;;;;;;14.70;6.43;;;;;;;17.69;81.47;99233.34;5070924;28;20192;-61
2023/05/24 03:46:24;;;;;;;37.63;7.90;;;;;;;17.75;81.16;99225.09;5051268;28;20256;-61
2023/05/24 03:48:51;;;;;;;17.27;5.97;;;;;;;17.88;81.33;99218.56;5051741;28;20201;-59
2023/05/24 03:51:18;;;;;;;5.47;4.90;;;;;;;18.30;84.63;99211.53;5051517;28;20201;-58
2023/05/24 03:53:45;;;;;;;7.20;5.23;;;;;;;19.03;81.54;99227.88;5066245;28;20199;-58
2023/05/24 03:56:11;;;;;;;8.47;4.90;;;;;;;19.73;77.91;99239.19;5070820;28;20202;-61
2023/05/24 03:58:38;;;;;;;10.47;5.90;;;;;;;20.16;73.22;99245.09;5062863;28;20662;-60
2023/05/24 04:01:06;;;;;;;7.57;5.27;;;;;;;20.70;70.72;99250.91;5062017;28;20222;-60
2023/05/24 04:03:33;;;;;;;9.97;6.17;;;;;;;21.57;67.55;99266.91;5060852;28;20189;-62
2023/05/24 04:06:00;;;;;;;7.73;5.77;;;;;;;22.15;63.73;99264.38;5068984;28;20188;-61
2023/05/24 04:08:27;;;;;;;32.73;6.97;;;;;;;23.18;61.45;99267.84;5070766;28;20609;-62
2023/05/24 04:10:53;;;;;;;13.30;5.53;;;;;;;24.20;57.29;99281.84;5071109;28;20196;-63
2023/05/24 04:13:21;;;;;;;9.23;5.30;;;;;;;24.81;52.97;99274.56;5070972;28;20193;-62
2023/05/24 04:15:47;;;;;;;12.00;5.83;;;;;;;25.62;52.02;99276.00;5059971;28;20193;-62
2023/05/24 04:18:15;;;;;;;7.27;5.50;;;;;;;26.19;50.31;99262.69;5070510;28;20548;-62
2023/05/24 04:20:42;;;;;;;9.43;7.37;;;;;;;26.67;45.80;99273.97;5074113;28;20268;-62
2023/05/24 04:23:09;;;;;;;14.83;6.07;;;;;;;27.25;45.09;99283.00;5071473;28;20564;-61
2023/05/24 04:25:35;;;;;;;11.23;5.67;;;;;;;27.39;45.43;99272.81;5074556;28;20196;-61
2023/05/24 04:28:03;;;;;;;6.83;5.60;;;;;;;27.68;42.89;99271.25;5074120;28;20188;-62
2023/05/24 04:30:30;;;;;;;13.47;6.30;;;;;;;28.06;41.85;99264.22;5073243;28;20278;-63
2023/05/24 04:32:56;;;;;;;29.97;6.37;;;;;;;28.10;42.58;99262.47;5074214;28;20646;-61
2023/05/24 04:35:25;;;;;;;13.60;5.97;;;;;;;28.19;40.71;99255.13;5074022;28;20569;-62
2023/05/24 04:37:52;;;;;;;13.20;5.50;;;;;;;28.37;40.96;99250.50;5073144;28;20188;-62
2023/05/24 04:40:21;;;;;;;14.83;5.40;;;;;;;28.74;41.46;99245.31;5074056;28;20223;-61
2023/05/24 04:42:48;;;;;;;14.67;5.20;;;;;;;28.47;38.99;99256.50;5073696;28;20690;-63
2023/05/24 04:45:15;;;;;;;5.70;5.10;;;;;;;27.72;40.59;99255.06;5071499;28;20243;-62
2023/05/24 04:47:42;;;;;;;4.67;4.30;;;;;;;27.20;41.56;99253.91;5073572;28;20192;-62
2023/05/24 04:50:09;;;;;;;5.10;4.70;;;;;;;26.89;42.30;99242.09;5073190;28;20232;-63
2023/05/24 04:52:37;;;;;;;8.27;5.40;;;;;;;26.64;43.20;99236.41;5067537;28;20299;-63
2023/05/24 04:55:04;;;;;;;5.80;4.17;;;;;;;26.38;42.24;99208.09;5067272;28;20614;-63
2023/05/24 04:57:31;;;;;;;5.53;5.03;;;;;;;26.82;43.01;99246.38;5065253;28;20246;-64
2023/05/24 04:59:58;;;;;;;11.37;4.83;;;;;;;27.23;41.59;99250.56;5064294;28;20270;-63
2023/05/24 05:02:25;;;;;;;9.27;4.50;;;;;;;27.47;41.11;99252.97;5073984;28;20192;-60
2023/05/24 05:04:53;;;;;;;11.63;4.43;;;;;;;27.24;42.02;99254.13;5073650;28;20192;-60
2023/05/24 05:07:19;;;;;;;7.50;4.43;;;;;;;27.22;41.11;99257.16;5073136;28;20224;-61
2023/05/24 05:09:47;;;;;;;4.83;4.37;;;;;;;26.68;42.74;99254.59;5071864;28;20227;-61
2023/05/24 05:12:14;;;;;;;6.47;3.70;;;;;;;27.11;43.01;99252.22;5064185;28;20200;-62
2023/05/24 05:14:42;;;;;;;9.87;4.83;;;;;;;27.48;41.00;99260.84;5074055;28;20191;-61
2023/05/24 05:17:09;;;;;;;9.60;4.57;;;;;;;27.44;41.30;99265.31;5073591;28;20207;-62
2023/05/24 05:19:35;;;;;;;5.30;4.80;;;;;;;27.55;41.51;99271.31;5073820;28;20192;-60
2023/05/24 05:22:02;;;;;;;10.97;4.33;;;;;;;28.05;40.53;99264.56;5073314;28;20590;-60
2023/05/24 05:24:29;;;;;;;4.40;4.10;;;;;;;28.22;40.58;99267.34;5070903;28;20192;-61
2023/05/24 05:26:57;;;;;;;5.77;4.37;;;;;;;28.28;39.89;99272.34;5072924;28;20192;-65
2023/05/24 05:29:23;;;;;;;4.43;4.10;;;;;;;28.85;38.84;99262.19;5073012;28;20196;-68
2023/05/24 05:31:50;;;;;;;11.07;3.90;;;;;;;29.46;38.09;99263.78;5071713;28;20195;-65
2023/05/24 05:34:17;;;;;;;13.50;3.90;;;;;;;29.91;36.91;99267.72;5072236;28;20222;-70
2023/05/24 05:36:43;;;;;;;9.53;4.43;;;;;;;30.10;36.05;99276.38;5072324;28;20222;-67
2023/05/24 05:39:10;;;;;;;5.40;3.47;;;;;;;30.40;35.24;99276.09;5073110;28;20195;-69
2023/05/24 05:41:39;;;;;;;6.73;4.10;;;;;;;30.28;35.42;99278.72;5073170;28;20258;-69
2023/05/24 05:44:07;;;;;;;12.47;4.50;;;;;;;30.64;35.56;99280.94;5065617;28;20302;-69
2023/05/24 05:46:34;;;;;;;4.93;4.40;;;;;;;30.89;34.93;99278.06;5069526;28;20195;-69
2023/05/24 05:49:01;;;;;;;4.70;3.90;;;;;;;31.09;34.56;99284.69;5072442;28;20200;-70
2023/05/24 05:51:27;;;;;;;6.53;4.37;;;;;;;31.11;34.43;99274.97;5072519;28;20214;-67
2023/05/24 05:53:54;;;;;;;5.87;4.50;;;;;;;31.28;33.99;99274.84;5073043;28;20782;-68
2023/05/24 05:56:21;;;;;;;5.17;4.07;;;;;;;30.98;34.73;99276.03;5073322;28;20192;-65
2023/05/24 05:58:48;;;;;;;5.23;4.00;;;;;;;30.56;35.14;99271.66;5072074;28;20196;-67
2023/05/24 06:01:16;;;;;;;5.40;4.73;;;;;;;30.11;36.08;99273.31;5072582;28;20224;-70
2023/05/24 06:03:43;;;;;;;4.77;3.70;;;;;;;30.33;35.14;99275.78;5072423;28;20288;-69
2023/05/24 06:06:10;;;;;;;4.70;4.27;;;;;;;30.00;35.74;99274.78;5070876;28;20195;-68
2023/05/24 06:08:39;;;;;;;4.73;4.43;;;;;;;29.61;37.42;99283.31;5072363;28;20196;-64
2023/05/24 06:11:06;;;;;;;4.40;3.90;;;;;;;29.68;37.24;99291.81;5073036;28;20184;-69
2023/05/24 06:13:33;;;;;;;9.07;4.60;;;;;;;29.89;36.86;99287.25;5072648;28;20192;-70
2023/05/24 06:16:00;;;;;;;12.47;4.53;;;;;;;29.84;36.50;99276.44;5072710;28;20203;-71
2023/05/24 06:18:29;;;;;;;10.93;4.87;;;;;;;29.95;36.50;99276.91;5072606;28;20204;-71
2023/05/24 06:20:56;;;;;;;7.40;4.50;;;;;;;29.41;37.64;99292.16;5072638;28;20220;-69
2023/05/24 06:23:22;;;;;;;15.97;5.37;;;;;;;28.83;39.68;99291.81;5072261;28;20195;-69
2023/05/24 06:25:49;;;;;;;7.90;5.03;;;;;;;28.57;40.91;99280.81;5072545;28;20196;-70
2023/05/24 06:28:16;;;;;;;16.20;5.23;;;;;;;28.74;40.67;99291.78;5072009;28;20206;-70
2023/05/24 06:30:43;;;;;;;4.50;4.20;;;;;;;28.63;41.10;99289.69;5072112;28;20627;-70
2023/05/24 06:33:11;;;;;;;11.80;5.23;;;;;;;28.85;40.69;99295.00;5072321;28;20235;-69
2023/05/24 06:35:39;;;;;;;6.27;4.10;;;;;;;28.78;40.48;99300.13;5071974;28;20660;-70
2023/05/24 06:38:06;;;;;;;24.37;5.13;;;;;;;28.76;40.51;99275.88;5072426;28;20203;-71
2023/05/24 06:40:33;;;;;;;4.43;4.03;;;;;;;28.80;39.96;99290.53;5072265;28;20215;-71
2023/05/24 06:43:00;;;;;;;4.73;4.33;;;;;;;28.89;40.89;99287.78;5072403;28;20204;-71
2023/05/24 06:45:26;;;;;;;7.10;5.13;;;;;;;29.23;40.59;99290.53;5072201;28;20203;-72
2023/05/24 06:47:53;;;;;;;24.70;5.70;;;;;;;29.21;39.41;99290.06;5072198;28;20222;-72
2023/05/24 06:50:21;;;;;;;7.30;4.27;;;;;;;29.08;40.67;99289.09;5071978;28;20200;-72
2023/05/24 06:52:49;;;;;;;7.70;4.23;;;;;;;29.42;39.80;99293.75;5072308;28;20635;-72
2023/05/24 06:55:17;;;;;;;7.50;4.60;;;;;;;29.41;39.28;99273.00;5072011;28;20583;-71
2023/05/24 06:57:44;;;;;;;3.83;3.63;;;;;;;29.49;38.83;99291.34;5072193;28;20211;-72
2023/05/24 07:00:12;;;;;;;5.47;4.13;;;;;;;29.15;39.64;99267.53;5071780;28;20196;-72
2023/05/24 07:02:39;;;;;;;5.00;3.83;;;;;;;29.60;39.38;99298.09;5071568;28;20681;-70
2023/05/24 07:05:10;;;;;;;8.13;3.83;;;;;;;29.78;38.65;99296.94;5071368;28;20203;-72
2023/05/24 07:07:38;;;;;;;3.90;3.70;;;;;;;30.26;38.60;99274.72;5071989;28;20196;-71
2023/05/24 07:10:09;;;;;;;4.40;4.00;;;;;;;30.66;36.77;99268.50;5071935;28;20286;-71
2023/05/24 07:12:36;;;;;;;8.83;4.13;;;;;;;30.59;36.53;99283.88;5071861;28;20270;-70
2023/05/24 07:15:03;;;;;;;4.63;4.23;;;;;;;30.78;37.08;99279.59;5071547;28;20192;-71
2023/05/24 07:17:29;;;;;;;28.70;5.97;;;;;;;30.93;36.15;99283.66;5071189;28;20625;-72
2023/05/24 07:19:56;;;;;;;13.13;4.37;;;;;;;30.99;36.57;99274.91;5071894;28;20265;-72
2023/05/24 07:22:24;;;;;;;19.03;4.33;;;;;;;31.19;36.74;99276.84;5071394;28;20224;-69
2023/05/24 07:24:51;;;;;;;25.17;4.93;;;;;;;31.42;34.71;99269.88;5072038;28;20192;-71
2023/05/24 07:27:19;;;;;;;13.73;3.97;;;;;;;31.26;35.40;99259.84;5071595;28;20196;-71
2023/05/24 07:29:46;;;;;;;4.57;3.60;;;;;;;30.90;36.14;99267.91;5071719;28;20199;-72
2023/05/24 07:32:13;;;;;;;4.73;4.37;;;;;;;30.88;35.73;99268.22;5071527;28;20322;-71
2023/05/24 07:34:40;;;;;;;4.10;3.70;;;;;;;31.01;36.23;99278.13;5071507;28;20191;-71
2023/05/24 07:37:07;;;;;;;5.00;3.73;;;;;;;30.81;36.66;99278.09;5071159;28;20655;-71
2023/05/24 07:39:33;;;;;;;7.30;4.17;;;;;;;30.86;37.51;99275.97;5071537;28;20192;-71
2023/05/24 07:42:00;;;;;;;3.43;3.17;;;;;;;31.21;36.84;99269.09;5071635;28;20698;-71
2023/05/24 07:44:29;;;;;;;36.53;6.77;;;;;;;31.47;36.16;99279.84;5071765;28;20204;-71
2023/05/24 07:46:55;;;;;;;6.33;4.30;;;;;;;31.31;35.65;99279.66;5071594;28;20196;-72
2023/05/24 07:49:22;;;;;;;3.67;3.37;;;;;;;31.25;35.42;99275.53;5071379;28;20199;-71
2023/05/24 07:51:49;;;;;;;5.40;4.10;;;;;;;31.10;35.62;99276.13;5071459;28;20204;-72
2023/05/24 07:54:16;;;;;;;4.00;3.57;;;;;;;31.26;36.13;99271.66;5072335;28;20324;-72
2023/05/24 07:56:43;;;;;;;5.40;4.10;;;;;;;31.19;34.85;99271.34;5074675;28;20680;-72
2023/05/24 07:59:10;;;;;;;3.77;3.57;;;;;;;31.26;34.82;99268.09;5075305;28;20192;-72
2023/05/24 08:01:38;;;;;;;6.43;3.30;;;;;;;31.56;35.00;99269.59;5074981;28;20703;-72
2023/05/24 08:04:07;;;;;;;6.17;4.23;;;;;;;31.83;34.14;99269.78;5074952;28;20614;-73
2023/05/24 08:06:34;;;;;;;5.40;3.73;;;;;;;31.88;33.71;99275.06;5075080;28;20278;-71
2023/05/24 08:09:00;;;;;;;3.77;3.47;;;;;;;31.90;33.34;99278.28;5075417;28;20273;-70
2023/05/24 08:11:27;;;;;;;3.87;3.57;;;;;;;31.59;32.53;99277.13;5074637;28;20652;-71
2023/05/24 08:13:54;;;;;;;16.87;4.20;;;;;;;31.53;32.76;99276.56;5074598;28;20215;-70
2023/05/24 08:16:21;;;;;;;4.63;3.53;;;;;;;31.39;33.23;99270.53;5074590;28;20257;-70
2023/05/24 08:18:49;;;;;;;3.37;3.17;;;;;;;31.64;33.08;99271.44;5074586;28;20695;-71
2023/05/24 08:21:16;;;;;;;5.90;3.97;;;;;;;31.74;32.81;99271.00;5074476;28;20224;-71
2023/05/24 08:23:43;;;;;;;9.50;4.03;;;;;;;31.71;32.55;99272.47;5074614;28;20192;-70
2023/05/24 08:26:10;;;;;;;23.37;4.63;;;;;;;31.75;33.17;99278.91;5074485;28;20195;-71
2023/05/24 08:28:37;;;;;;;6.27;4.63;;;;;;;31.90;32.84;99270.03;5074297;28;20671;-71
2023/05/24 08:31:04;;;;;;;27.40;5.60;;;;;;;31.89;33.03;99273.13;5074120;28;20668;-70
2023/05/24 08:33:31;;;;;;;3.57;3.37;;;;;;;31.69;31.96;99268.47;5074396;28;20687;-71
2023/05/24 08:35:59;;;;;;;20.33;5.17;;;;;;;31.75;32.72;99267.91;5074346;28;20242;-72
2023/05/24 08:38:25;;;;;;;3.77;3.57;;;;;;;31.46;32.41;99259.81;5074460;28;20192;-71
2023/05/24 08:40:52;;;;;;;5.37;3.27;;;;;;;31.45;32.78;99277.44;5074148;28;20249;-71
2023/05/24 08:43:21;;;;;;;7.60;3.43;;;;;;;31.79;32.12;99274.38;5074689;28;20279;-71
2023/05/24 08:45:49;;;;;;;3.43;3.17;;;;;;;32.15;31.99;99279.09;5074026;28;20626;-70
2023/05/24 08:48:18;;;;;;;4.00;3.70;;;;;;;32.45;31.40;99266.75;5073971;28;20191;-69
2023/05/24 08:50:45;;;;;;;15.80;4.00;;;;;;;32.66;29.81;99276.47;5073982;28;20611;-69
2023/05/24 08:53:14;;;;;;;5.53;3.90;;;;;;;32.46;30.83;99274.66;5073969;28;20235;-69
2023/05/24 08:55:43;;;;;;;5.53;3.40;;;;;;;32.56;30.25;99276.16;5074525;28;20283;-69
2023/05/24 08:58:09;;;;;;;8.83;4.00;;;;;;;32.57;31.51;99269.50;5073650;28;20192;-69
2023/05/24 09:00:36;;;;;;;12.13;4.43;;;;;;;32.78;30.57;99279.22;5074015;28;20204;-70
2023/05/24 09:03:05;;;;;;;4.63;3.43;;;;;;;32.45;29.35;99273.06;5073965;28;20284;-68
2023/05/24 09:05:33;;;;;;;3.73;3.27;;;;;;;32.09;29.69;99270.28;5072407;28;20652;-70
2023/05/24 09:08:00;;;;;;;8.13;3.50;;;;;;;32.40;30.48;99276.06;5073721;28;20611;-70
2023/05/24 09:10:29;;;;;;;7.83;3.60;;;;;;;32.37;30.58;99268.50;5074030;28;20239;-70
2023/05/24 09:12:58;;;;;;;3.43;3.13;;;;;;;32.29;29.40;99265.84;5074292;28;20625;-70
2023/05/24 09:15:24;;;;;;;3.60;3.13;;;;;;;31.87;30.20;99265.22;5073410;28;20725;-70
2023/05/24 09:17:51;;;;;;;5.00;3.60;;;;;;;31.96;29.28;99268.66;5073675;28;20257;-71
2023/05/24 09:20:18;;;;;;;5.23;3.60;;;;;;;32.09;30.35;99267.53;5073524;28;20640;-71
2023/05/24 09:22:48;;;;;;;5.97;3.17;;;;;;;32.21;30.41;99264.00;5073718;28;20220;-71
2023/05/24 09:25:15;;;;;;;4.70;3.27;;;;;;;32.21;30.99;99259.28;5073745;28;20682;-71
2023/05/24 09:27:48;;;;;;;3.77;3.47;;;;;;;32.17;29.97;99263.88;5073210;28;20701;-71
2023/05/24 09:30:15;;;;;;;22.47;4.80;;;;;;;32.28;31.07;99254.03;5073422;28;20184;-71
2023/05/24 09:32:54;;;;;;;4.73;3.20;;;;;;;32.48;29.27;99263.31;5073200;28;20265;-71
2023/05/24 09:35:22;;;;;;;4.83;3.30;;;;;;;32.56;28.43;99262.41;5073332;28;20253;-69
2023/05/24 09:37:49;;;;;;;62.50;6.67;;;;;;;32.76;28.57;99259.50;5073240;28;20224;-70
2023/05/24 09:40:18;;;;;;;14.33;4.70;;;;;;;32.92;28.51;99263.13;5072685;28;20226;-69
2023/05/24 09:42:50;;;;;;;6.97;3.60;;;;;;;33.12;27.58;99256.66;5072784;28;20315;-69
2023/05/24 09:45:17;;;;;;;4.77;3.40;;;;;;;33.24;27.00;99259.38;5073109;28;20185;-69
2023/05/24 09:47:45;;;;;;;5.37;3.30;;;;;;;33.20;27.96;99247.44;5073143;28;20203;-69
2023/05/24 09:50:13;;;;;;;3.80;3.57;;;;;;;33.08;27.16;99255.75;5072536;28;20660;-69
2023/05/24 09:52:41;;;;;;;3.53;3.33;;;;;;;32.71;27.33;99248.72;5073207;28;20196;-70
2023/05/24 09:55:12;;;;;;;4.43;3.30;;;;;;;32.40;27.52;99251.31;5073018;28;20214;-71
2023/05/24 09:57:39;;;;;;;8.77;3.97;;;;;;;32.13;28.59;99246.47;5072926;28;20625;-70
2023/05/24 10:00:15;;;;;;;3.70;3.50;;;;;;;32.22;28.28;99244.38;5072503;28;20199;-71
2023/05/24 10:02:43;;;;;;;4.07;3.77;;;;;;;32.34;28.31;99252.66;5072875;28;20305;-70
2023/05/24 10:05:11;;;;;;;11.23;3.83;;;;;;;32.32;28.78;99243.16;5072668;28;20257;-71
2023/05/24 10:07:37;;;;;;;3.83;3.17;;;;;;;32.15;29.38;99235.94;5072646;28;20203;-72
2023/05/24 10:10:06;;;;;;;3.70;3.23;;;;;;;32.38;29.16;99250.84;5072761;28;20254;-71
2023/05/24 10:12:34;;;;;;;5.10;3.60;;;;;;;32.30;29.27;99243.50;5072818;28;20189;-71
2023/05/24 10:15:01;;;;;;;3.80;3.50;;;;;;;32.42;28.93;99249.00;5072749;28;20216;-70
2023/05/24 10:17:30;;;;;;;5.93;3.77;;;;;;;32.55;28.49;99242.31;5072042;28;20261;-70
2023/05/24 10:19:57;;;;;;;6.80;3.40;;;;;;;32.86;27.74;99236.22;5072582;28;20202;-70
2023/05/24 10:22:25;;;;;;;7.40;3.80;;;;;;;33.09;27.32;99229.03;5072032;28;20703;-69
2023/05/24 10:24:57;;;;;;;4.17;3.77;;;;;;;33.08;27.32;99239.22;5072180;28;20656;-69
2023/05/24 10:27:32;;;;;;;5.63;3.90;;;;;;;33.04;27.49;99230.06;5072529;28;20226;-69
2023/05/24 10:30:04;;;;;;;6.70;4.30;;;;;;;33.15;27.78;99228.44;5072474;28;20641;-70
2023/05/24 10:32:35;;;;;;;6.30;3.60;;;;;;;33.20;28.03;99230.94;5072099;28;20307;-70
2023/05/24 10:35:04;;;;;;;4.20;3.80;;;;;;;33.19;27.14;99225.75;5072750;28;20190;-70
2023/05/24 10:37:31;;;;;;;6.82;4.22;;;;;;;33.11;28.42;99226.72;5072138;28;20651;-70
2023/05/24 10:39:59;;;;;;;14.43;4.83;;;;;;;32.83;27.70;99221.19;5072577;28;20195;-70
2023/05/24 10:42:26;;;;;;;4.40;4.00;;;;;;;32.70;27.30;99210.53;5072161;28;20226;-71
2023/05/24 10:44:56;;;;;;;5.13;4.73;;;;;;;32.16;28.21;99217.47;5072013;28;20203;-72
2023/05/24 10:47:27;;;;;;;5.87;4.00;;;;;;;32.25;28.17;99218.97;5072315;28;20188;-71
2023/05/24 10:49:58;;;;;;;6.43;4.30;;;;;;;32.17;28.54;99217.13;5072543;28;20199;-70
2023/05/24 10:52:34;;;;;;;4.67;3.73;;;;;;;32.41;28.19;99200.66;5072029;28;20203;-71
2023/05/24 10:55:06;;;;;;;3.83;3.63;;;;;;;32.50;28.07;99201.31;5072031;28;20230;-70
2023/05/24 10:57:33;;;;;;;3.57;3.37;;;;;;;32.50;28.08;99206.81;5072204;28;20202;-70
2023/05/24 11:00:27;;;;;;;4.07;3.73;;;;;;;32.28;27.91;99199.03;5072317;28;20257;-72
2023/05/24 11:03:01;;;;;;;4.33;3.80;;;;;;;32.06;28.79;99191.25;5072794;28;20318;-70
2023/05/24 11:05:35;;;;;;;6.07;3.73;;;;;;;32.13;28.55;99185.97;5056979;28;20671;-71
2023/05/24 11:08:02;;;;;;;7.83;4.07;;;;;;;31.79;28.56;99172.72;5053452;28;20288;-70
2023/05/24 11:10:32;;;;;;;5.90;3.50;;;;;;;32.08;29.07;99186.22;5054079;28;20668;-70
2023/05/24 11:13:00;;;;;;;4.17;3.80;;;;;;;32.28;28.15;99182.53;5055189;28;20200;-70
2023/05/24 11:15:28;;;;;;;3.93;3.60;;;;;;;32.34;28.33;99186.66;5058409;28;20250;-71
2023/05/24 11:18:14;;;;;;;6.70;3.70;;;;;;;32.14;28.42;99192.28;5056832;28;20275;-71
2023/05/24 11:20:45;;;;;;;11.80;4.37;;;;;;;32.18;27.65;99191.25;5057284;28;20196;-71
2023/05/24 11:23:12;;;;;;;5.80;3.80;;;;;;;32.29;27.66;99189.66;5055752;28;20255;-71
2023/05/24 11:25:39;;;;;;;6.97;4.23;;;;;;;32.35;27.19;99188.28;5055178;28;20668;-71
2023/05/24 11:28:08;;;;;;;3.97;3.70;;;;;;;32.25;27.84;99188.72;5054081;28;20193;-71
2023/05/24 11:30:39;;;;;;;6.47;3.23;;;;;;;32.35;27.40;99182.78;5055616;28;20200;-70
2023/05/24 11:33:13;;;;;;;4.03;3.77;;;;;;;32.36;28.19;99189.88;5055749;28;20232;-70
2023/05/24 11:35:40;;;;;;;3.80;3.47;;;;;;;32.41;26.43;99186.91;5055558;28;20606;-71